sensor_id;sensor_type;location;lat;lon;timestamp;P1;durP1;ratioP1;P2;durP2;ratioP2
64936;SDS011;51452;47.698;19.050;2023-04-03T00:00:49;6.07;;;3.80;;
64936;SDS011;51452;47.698;19.050;2023-04-03T00:03:14;4.87;;;3.37;;
64936;SDS011;51452;47.698;19.050;2023-04-03T00:05:40;5.33;;;3.67;;
64936;SDS011;51452;47.698;19.050;2023-04-03T00:08:06;6.57;;;3.83;;
64936;SDS011;51452;47.698;19.050;2023-04-03T00:10:32;6.07;;;3.87;;
64936;SDS011;51452;47.698;19.050;2023-04-03T00:12:58;6.40;;;3.90;;
64936;SDS011;51452;47.698;19.050;2023-04-03T00:15:23;5.70;;;3.50;;
64936;SDS011;51452;47.698;19.050;2023-04-03T00:17:49;6.53;;;3.90;;
64936;SDS011;51452;47.698;19.050;2023-04-03T00:20:14;6.43;;;3.60;;
64936;SDS011;51452;47.698;19.050;2023-04-03T00:22:40;6.00;;;3.80;;
64936;SDS011;51452;47.698;19.050;2023-04-03T00:25:06;5.40;;;3.63;;
64936;SDS011;51452;47.698;19.050;2023-04-03T00:27:31;5.70;;;3.47;;
64936;SDS011;51452;47.698;19.050;2023-04-03T00:29:57;6.43;;;3.73;;
64936;SDS011;51452;47.698;19.050;2023-04-03T00:32:22;5.70;;;3.90;;
64936;SDS011;51452;47.698;19.050;2023-04-03T00:34:48;4.80;;;3.53;;
64936;SDS011;51452;47.698;19.050;2023-04-03T00:37:13;7.17;;;3.70;;
64936;SDS011;51452;47.698;19.050;2023-04-03T00:39:38;5.07;;;3.37;;
64936;SDS011;51452;47.698;19.050;2023-04-03T00:42:04;6.73;;;3.73;;
64936;SDS011;51452;47.698;19.050;2023-04-03T00:46:58;5.57;;;3.40;;
64936;SDS011;51452;47.698;19.050;2023-04-03T00:49:24;5.93;;;3.90;;
64936;SDS011;51452;47.698;19.050;2023-04-03T00:51:50;7.00;;;4.13;;
64936;SDS011;51452;47.698;19.050;2023-04-03T00:54:16;5.93;;;3.50;;
64936;SDS011;51452;47.698;19.050;2023-04-03T00:56:41;5.47;;;3.53;;
64936;SDS011;51452;47.698;19.050;2023-04-03T00:59:10;6.03;;;3.60;;
64936;SDS011;51452;47.698;19.050;2023-04-03T01:01:40;5.93;;;3.80;;
64936;SDS011;51452;47.698;19.050;2023-04-03T01:04:24;5.03;;;3.33;;
64936;SDS011;51452;47.698;19.050;2023-04-03T01:06:53;6.60;;;3.97;;
64936;SDS011;51452;47.698;19.050;2023-04-03T01:09:21;6.93;;;3.90;;
64936;SDS011;51452;47.698;19.050;2023-04-03T01:11:47;6.67;;;3.50;;
64936;SDS011;51452;47.698;19.050;2023-04-03T01:14:12;5.47;;;3.47;;
64936;SDS011;51452;47.698;19.050;2023-04-03T01:16:37;8.23;;;3.80;;
64936;SDS011;51452;47.698;19.050;2023-04-03T01:19:05;5.83;;;3.27;;
64936;SDS011;51452;47.698;19.050;2023-04-03T01:24:36;6.77;;;3.80;;
64936;SDS011;51452;47.698;19.050;2023-04-03T01:27:04;5.43;;;3.77;;
64936;SDS011;51452;47.698;19.050;2023-04-03T01:29:31;5.03;;;3.57;;
64936;SDS011;51452;47.698;19.050;2023-04-03T01:31:57;6.67;;;4.00;;
64936;SDS011;51452;47.698;19.050;2023-04-03T01:34:24;8.00;;;3.93;;
64936;SDS011;51452;47.698;19.050;2023-04-03T01:36:51;5.53;;;3.97;;
64936;SDS011;51452;47.698;19.050;2023-04-03T01:39:17;5.47;;;3.80;;
64936;SDS011;51452;47.698;19.050;2023-04-03T01:41:43;5.37;;;3.67;;
64936;SDS011;51452;47.698;19.050;2023-04-03T01:44:08;6.07;;;3.60;;
64936;SDS011;51452;47.698;19.050;2023-04-03T01:46:34;16.03;;;14.80;;
64936;SDS011;51452;47.698;19.050;2023-04-03T01:48:59;12.90;;;11.90;;
64936;SDS011;51452;47.698;19.050;2023-04-03T01:51:25;6.17;;;4.03;;
64936;SDS011;51452;47.698;19.050;2023-04-03T01:53:50;6.90;;;3.83;;
64936;SDS011;51452;47.698;19.050;2023-04-03T01:56:16;5.90;;;3.23;;
64936;SDS011;51452;47.698;19.050;2023-04-03T01:58:42;4.27;;;3.10;;
64936;SDS011;51452;47.698;19.050;2023-04-03T02:01:07;4.73;;;3.20;;
64936;SDS011;51452;47.698;19.050;2023-04-03T02:03:32;5.77;;;3.37;;
64936;SDS011;51452;47.698;19.050;2023-04-03T02:05:58;4.27;;;3.07;;
64936;SDS011;51452;47.698;19.050;2023-04-03T02:08:23;4.07;;;2.87;;
64936;SDS011;51452;47.698;19.050;2023-04-03T02:10:49;4.30;;;3.20;;
64936;SDS011;51452;47.698;19.050;2023-04-03T02:13:16;4.20;;;2.90;;
64936;SDS011;51452;47.698;19.050;2023-04-03T02:15:42;5.93;;;3.40;;
64936;SDS011;51452;47.698;19.050;2023-04-03T02:18:08;4.43;;;3.13;;
64936;SDS011;51452;47.698;19.050;2023-04-03T02:20:33;4.80;;;3.20;;
64936;SDS011;51452;47.698;19.050;2023-04-03T02:22:59;3.83;;;3.10;;
64936;SDS011;51452;47.698;19.050;2023-04-03T02:25:25;4.97;;;3.03;;
64936;SDS011;51452;47.698;19.050;2023-04-03T02:27:51;4.90;;;3.00;;
64936;SDS011;51452;47.698;19.050;2023-04-03T02:30:16;4.70;;;3.33;;
64936;SDS011;51452;47.698;19.050;2023-04-03T02:32:42;5.73;;;3.40;;
64936;SDS011;51452;47.698;19.050;2023-04-03T02:35:09;5.97;;;3.63;;
64936;SDS011;51452;47.698;19.050;2023-04-03T02:37:35;3.93;;;3.07;;
64936;SDS011;51452;47.698;19.050;2023-04-03T02:40:01;4.63;;;3.10;;
64936;SDS011;51452;47.698;19.050;2023-04-03T02:42:26;4.03;;;2.83;;
64936;SDS011;51452;47.698;19.050;2023-04-03T02:44:52;4.70;;;3.13;;
64936;SDS011;51452;47.698;19.050;2023-04-03T02:47:17;4.37;;;3.10;;
64936;SDS011;51452;47.698;19.050;2023-04-03T02:49:42;4.50;;;2.80;;
64936;SDS011;51452;47.698;19.050;2023-04-03T02:52:10;6.60;;;3.10;;
64936;SDS011;51452;47.698;19.050;2023-04-03T02:54:35;5.90;;;3.53;;
64936;SDS011;51452;47.698;19.050;2023-04-03T02:57:01;5.40;;;3.20;;
64936;SDS011;51452;47.698;19.050;2023-04-03T02:59:26;4.07;;;2.80;;
64936;SDS011;51452;47.698;19.050;2023-04-03T03:01:52;4.77;;;2.80;;
64936;SDS011;51452;47.698;19.050;2023-04-03T03:04:17;4.93;;;3.23;;
64936;SDS011;51452;47.698;19.050;2023-04-03T03:06:43;4.67;;;3.00;;
64936;SDS011;51452;47.698;19.050;2023-04-03T03:09:08;4.87;;;2.90;;
64936;SDS011;51452;47.698;19.050;2023-04-03T03:11:34;5.00;;;2.97;;
64936;SDS011;51452;47.698;19.050;2023-04-03T03:13:59;4.07;;;3.00;;
64936;SDS011;51452;47.698;19.050;2023-04-03T03:16:25;4.63;;;2.97;;
64936;SDS011;51452;47.698;19.050;2023-04-03T03:18:50;5.93;;;3.27;;
64936;SDS011;51452;47.698;19.050;2023-04-03T03:21:16;5.27;;;3.60;;
64936;SDS011;51452;47.698;19.050;2023-04-03T03:23:41;4.47;;;2.90;;
64936;SDS011;51452;47.698;19.050;2023-04-03T03:26:07;4.77;;;2.70;;
64936;SDS011;51452;47.698;19.050;2023-04-03T03:28:34;3.87;;;2.70;;
64936;SDS011;51452;47.698;19.050;2023-04-03T03:31:01;5.40;;;3.23;;
64936;SDS011;51452;47.698;19.050;2023-04-03T03:33:27;6.70;;;2.80;;
64936;SDS011;51452;47.698;19.050;2023-04-03T03:35:52;5.37;;;3.40;;
64936;SDS011;51452;47.698;19.050;2023-04-03T03:38:22;4.83;;;2.90;;
64936;SDS011;51452;47.698;19.050;2023-04-03T03:40:48;6.43;;;3.23;;
64936;SDS011;51452;47.698;19.050;2023-04-03T03:43:15;5.50;;;3.23;;
64936;SDS011;51452;47.698;19.050;2023-04-03T03:45:40;4.37;;;2.70;;
64936;SDS011;51452;47.698;19.050;2023-04-03T03:48:06;4.67;;;2.97;;
64936;SDS011;51452;47.698;19.050;2023-04-03T03:50:31;5.10;;;3.30;;
64936;SDS011;51452;47.698;19.050;2023-04-03T03:52:57;4.03;;;2.70;;
64936;SDS011;51452;47.698;19.050;2023-04-03T03:55:22;4.13;;;2.90;;
64936;SDS011;51452;47.698;19.050;2023-04-03T03:57:48;4.90;;;2.73;;
64936;SDS011;51452;47.698;19.050;2023-04-03T04:00:13;4.27;;;2.77;;
64936;SDS011;51452;47.698;19.050;2023-04-03T04:02:40;4.03;;;2.90;;
64936;SDS011;51452;47.698;19.050;2023-04-03T04:05:06;6.20;;;3.20;;
64936;SDS011;51452;47.698;19.050;2023-04-03T04:07:31;4.03;;;2.90;;
64936;SDS011;51452;47.698;19.050;2023-04-03T04:09:57;4.27;;;3.10;;
64936;SDS011;51452;47.698;19.050;2023-04-03T04:12:22;4.87;;;3.10;;
64936;SDS011;51452;47.698;19.050;2023-04-03T04:14:47;6.27;;;3.17;;
64936;SDS011;51452;47.698;19.050;2023-04-03T04:17:13;5.90;;;3.30;;
64936;SDS011;51452;47.698;19.050;2023-04-03T04:19:39;4.77;;;3.23;;
64936;SDS011;51452;47.698;19.050;2023-04-03T04:22:05;4.43;;;2.93;;
64936;SDS011;51452;47.698;19.050;2023-04-03T04:24:30;4.40;;;2.97;;
64936;SDS011;51452;47.698;19.050;2023-04-03T04:26:56;4.23;;;2.87;;
64936;SDS011;51452;47.698;19.050;2023-04-03T04:29:21;5.70;;;3.70;;
64936;SDS011;51452;47.698;19.050;2023-04-03T04:31:50;4.67;;;3.03;;
64936;SDS011;51452;47.698;19.050;2023-04-03T04:34:16;4.53;;;3.10;;
64936;SDS011;51452;47.698;19.050;2023-04-03T04:36:41;4.23;;;2.93;;
64936;SDS011;51452;47.698;19.050;2023-04-03T04:39:06;4.57;;;2.93;;
64936;SDS011;51452;47.698;19.050;2023-04-03T04:41:32;4.67;;;3.17;;
64936;SDS011;51452;47.698;19.050;2023-04-03T04:43:57;5.20;;;2.90;;
64936;SDS011;51452;47.698;19.050;2023-04-03T04:46:23;6.13;;;3.10;;
64936;SDS011;51452;47.698;19.050;2023-04-03T04:48:48;5.60;;;3.30;;
64936;SDS011;51452;47.698;19.050;2023-04-03T04:51:14;4.17;;;2.97;;
64936;SDS011;51452;47.698;19.050;2023-04-03T04:53:40;4.97;;;3.00;;
64936;SDS011;51452;47.698;19.050;2023-04-03T04:56:06;5.13;;;3.10;;
64936;SDS011;51452;47.698;19.050;2023-04-03T04:58:32;5.30;;;3.23;;
64936;SDS011;51452;47.698;19.050;2023-04-03T05:00:58;5.70;;;3.60;;
64936;SDS011;51452;47.698;19.050;2023-04-03T05:03:30;4.50;;;3.10;;
64936;SDS011;51452;47.698;19.050;2023-04-03T05:05:56;4.67;;;3.07;;
64936;SDS011;51452;47.698;19.050;2023-04-03T05:08:22;4.70;;;3.37;;
64936;SDS011;51452;47.698;19.050;2023-04-03T05:10:48;7.20;;;3.20;;
64936;SDS011;51452;47.698;19.050;2023-04-03T05:13:14;4.70;;;3.10;;
64936;SDS011;51452;47.698;19.050;2023-04-03T05:15:40;5.03;;;2.70;;
64936;SDS011;51452;47.698;19.050;2023-04-03T05:18:05;5.40;;;3.40;;
64936;SDS011;51452;47.698;19.050;2023-04-03T05:20:31;4.70;;;2.80;;
64936;SDS011;51452;47.698;19.050;2023-04-03T05:22:57;5.03;;;3.13;;
64936;SDS011;51452;47.698;19.050;2023-04-03T05:25:22;4.83;;;3.27;;
64936;SDS011;51452;47.698;19.050;2023-04-03T05:27:48;6.57;;;3.00;;
64936;SDS011;51452;47.698;19.050;2023-04-03T05:30:14;4.83;;;3.17;;
64936;SDS011;51452;47.698;19.050;2023-04-03T05:32:39;4.63;;;3.10;;
64936;SDS011;51452;47.698;19.050;2023-04-03T05:35:05;5.57;;;3.20;;
64936;SDS011;51452;47.698;19.050;2023-04-03T05:37:31;3.53;;;2.57;;
64936;SDS011;51452;47.698;19.050;2023-04-03T05:39:56;4.33;;;2.83;;
64936;SDS011;51452;47.698;19.050;2023-04-03T05:42:21;3.63;;;2.53;;
64936;SDS011;51452;47.698;19.050;2023-04-03T05:44:47;4.33;;;2.70;;
64936;SDS011;51452;47.698;19.050;2023-04-03T05:47:13;5.00;;;2.97;;
64936;SDS011;51452;47.698;19.050;2023-04-03T05:49:39;4.37;;;2.63;;
64936;SDS011;51452;47.698;19.050;2023-04-03T05:52:06;4.57;;;2.77;;
64936;SDS011;51452;47.698;19.050;2023-04-03T05:54:42;4.00;;;2.70;;
64936;SDS011;51452;47.698;19.050;2023-04-03T05:57:09;4.13;;;2.73;;
64936;SDS011;51452;47.698;19.050;2023-04-03T05:59:34;4.57;;;2.77;;
64936;SDS011;51452;47.698;19.050;2023-04-03T06:02:00;4.30;;;2.70;;
64936;SDS011;51452;47.698;19.050;2023-04-03T06:04:26;3.40;;;2.43;;
64936;SDS011;51452;47.698;19.050;2023-04-03T06:06:52;3.40;;;2.30;;
64936;SDS011;51452;47.698;19.050;2023-04-03T06:09:21;3.80;;;2.50;;
64936;SDS011;51452;47.698;19.050;2023-04-03T06:11:48;3.47;;;2.23;;
64936;SDS011;51452;47.698;19.050;2023-04-03T06:14:14;4.37;;;2.43;;
64936;SDS011;51452;47.698;19.050;2023-04-03T06:16:39;3.57;;;2.20;;
64936;SDS011;51452;47.698;19.050;2023-04-03T06:19:05;3.87;;;2.43;;
64936;SDS011;51452;47.698;19.050;2023-04-03T06:21:34;3.43;;;2.43;;
64936;SDS011;51452;47.698;19.050;2023-04-03T06:24:00;4.50;;;2.70;;
64936;SDS011;51452;47.698;19.050;2023-04-03T06:26:27;4.70;;;2.60;;
64936;SDS011;51452;47.698;19.050;2023-04-03T06:28:53;3.20;;;2.30;;
64936;SDS011;51452;47.698;19.050;2023-04-03T06:31:18;3.90;;;2.50;;
64936;SDS011;51452;47.698;19.050;2023-04-03T06:33:44;3.53;;;2.17;;
64936;SDS011;51452;47.698;19.050;2023-04-03T06:36:09;2.67;;;1.97;;
64936;SDS011;51452;47.698;19.050;2023-04-03T06:38:35;3.37;;;2.20;;
64936;SDS011;51452;47.698;19.050;2023-04-03T06:41:00;3.23;;;2.33;;
64936;SDS011;51452;47.698;19.050;2023-04-03T06:43:26;4.97;;;2.40;;
64936;SDS011;51452;47.698;19.050;2023-04-03T06:45:51;4.40;;;2.20;;
64936;SDS011;51452;47.698;19.050;2023-04-03T06:48:17;3.57;;;1.97;;
64936;SDS011;51452;47.698;19.050;2023-04-03T06:50:42;3.77;;;2.00;;
64936;SDS011;51452;47.698;19.050;2023-04-03T06:53:08;3.43;;;2.00;;
64936;SDS011;51452;47.698;19.050;2023-04-03T06:55:34;2.40;;;1.67;;
64936;SDS011;51452;47.698;19.050;2023-04-03T06:58:00;2.83;;;1.80;;
64936;SDS011;51452;47.698;19.050;2023-04-03T07:00:26;2.83;;;1.40;;
64936;SDS011;51452;47.698;19.050;2023-04-03T07:02:51;1.97;;;1.40;;
64936;SDS011;51452;47.698;19.050;2023-04-03T07:05:17;2.10;;;1.30;;
64936;SDS011;51452;47.698;19.050;2023-04-03T07:07:43;2.30;;;1.40;;
64936;SDS011;51452;47.698;19.050;2023-04-03T07:10:08;1.70;;;1.20;;
64936;SDS011;51452;47.698;19.050;2023-04-03T07:12:35;1.70;;;1.10;;
64936;SDS011;51452;47.698;19.050;2023-04-03T07:15:01;2.80;;;1.37;;
64936;SDS011;51452;47.698;19.050;2023-04-03T07:17:26;2.37;;;1.20;;
64936;SDS011;51452;47.698;19.050;2023-04-03T07:19:52;2.30;;;1.20;;
64936;SDS011;51452;47.698;19.050;2023-04-03T07:22:17;1.97;;;1.00;;
64936;SDS011;51452;47.698;19.050;2023-04-03T07:24:43;1.40;;;1.00;;
64936;SDS011;51452;47.698;19.050;2023-04-03T07:27:08;1.90;;;1.10;;
64936;SDS011;51452;47.698;19.050;2023-04-03T07:29:35;2.10;;;1.20;;
64936;SDS011;51452;47.698;19.050;2023-04-03T07:32:01;11.20;;;2.30;;
64936;SDS011;51452;47.698;19.050;2023-04-03T07:34:26;5.53;;;2.10;;
64936;SDS011;51452;47.698;19.050;2023-04-03T07:36:52;2.40;;;1.40;;
64936;SDS011;51452;47.698;19.050;2023-04-03T07:39:17;2.43;;;1.50;;
64936;SDS011;51452;47.698;19.050;2023-04-03T07:41:43;3.17;;;1.77;;
64936;SDS011;51452;47.698;19.050;2023-04-03T07:44:08;3.73;;;1.50;;
64936;SDS011;51452;47.698;19.050;2023-04-03T07:46:36;1.80;;;1.10;;
64936;SDS011;51452;47.698;19.050;2023-04-03T07:49:02;1.50;;;0.87;;
64936;SDS011;51452;47.698;19.050;2023-04-03T07:51:28;1.20;;;0.90;;
64936;SDS011;51452;47.698;19.050;2023-04-03T07:53:54;2.80;;;1.00;;
64936;SDS011;51452;47.698;19.050;2023-04-03T07:56:20;1.97;;;1.00;;
64936;SDS011;51452;47.698;19.050;2023-04-03T07:58:46;1.53;;;0.90;;
64936;SDS011;51452;47.698;19.050;2023-04-03T08:01:11;1.53;;;0.80;;
64936;SDS011;51452;47.698;19.050;2023-04-03T08:03:38;1.60;;;1.00;;
64936;SDS011;51452;47.698;19.050;2023-04-03T08:06:04;1.33;;;1.00;;
64936;SDS011;51452;47.698;19.050;2023-04-03T08:08:31;2.57;;;1.20;;
64936;SDS011;51452;47.698;19.050;2023-04-03T08:10:58;3.00;;;1.70;;
64936;SDS011;51452;47.698;19.050;2023-04-03T08:13:24;1.73;;;1.10;;
64936;SDS011;51452;47.698;19.050;2023-04-03T08:15:51;1.63;;;1.03;;
64936;SDS011;51452;47.698;19.050;2023-04-03T08:18:17;1.93;;;1.10;;
64936;SDS011;51452;47.698;19.050;2023-04-03T08:20:46;1.47;;;1.10;;
64936;SDS011;51452;47.698;19.050;2023-04-03T08:23:11;1.53;;;1.10;;
64936;SDS011;51452;47.698;19.050;2023-04-03T08:25:40;1.80;;;1.03;;
64936;SDS011;51452;47.698;19.050;2023-04-03T08:28:06;2.10;;;1.00;;
64936;SDS011;51452;47.698;19.050;2023-04-03T08:30:33;4.77;;;0.90;;
64936;SDS011;51452;47.698;19.050;2023-04-03T08:33:02;1.23;;;0.90;;
64936;SDS011;51452;47.698;19.050;2023-04-03T08:35:28;1.40;;;0.80;;
64936;SDS011;51452;47.698;19.050;2023-04-03T08:37:53;1.23;;;0.80;;
64936;SDS011;51452;47.698;19.050;2023-04-03T08:40:19;2.13;;;0.93;;
64936;SDS011;51452;47.698;19.050;2023-04-03T08:45:49;1.37;;;0.80;;
64936;SDS011;51452;47.698;19.050;2023-04-03T08:48:31;0.90;;;0.67;;
64936;SDS011;51452;47.698;19.050;2023-04-03T08:51:00;1.93;;;0.97;;
64936;SDS011;51452;47.698;19.050;2023-04-03T08:53:31;1.43;;;0.90;;
64936;SDS011;51452;47.698;19.050;2023-04-03T08:56:02;1.20;;;0.77;;
64936;SDS011;51452;47.698;19.050;2023-04-03T08:58:33;2.17;;;1.13;;
64936;SDS011;51452;47.698;19.050;2023-04-03T09:01:15;1.37;;;0.83;;
64936;SDS011;51452;47.698;19.050;2023-04-03T09:03:47;1.00;;;0.70;;
64936;SDS011;51452;47.698;19.050;2023-04-03T09:06:14;0.80;;;0.60;;
64936;SDS011;51452;47.698;19.050;2023-04-03T09:09:06;0.80;;;0.67;;
64936;SDS011;51452;47.698;19.050;2023-04-03T09:14:29;1.30;;;0.80;;
64936;SDS011;51452;47.698;19.050;2023-04-03T09:17:29;1.47;;;0.80;;
64936;SDS011;51452;47.698;19.050;2023-04-03T09:19:58;1.00;;;0.70;;
64936;SDS011;51452;47.698;19.050;2023-04-03T09:22:28;1.67;;;0.80;;
64936;SDS011;51452;47.698;19.050;2023-04-03T09:27:26;1.30;;;0.70;;
64936;SDS011;51452;47.698;19.050;2023-04-03T09:29:52;1.10;;;0.60;;
64936;SDS011;51452;47.698;19.050;2023-04-03T09:34:56;0.63;;;0.60;;
64936;SDS011;51452;47.698;19.050;2023-04-03T09:37:40;0.55;;;0.50;;
64936;SDS011;51452;47.698;19.050;2023-04-03T09:41:03;0.80;;;0.60;;
64936;SDS011;51452;47.698;19.050;2023-04-03T09:45:42;1.08;;;0.80;;
64936;SDS011;51452;47.698;19.050;2023-04-03T09:50:37;0.57;;;0.40;;
64936;SDS011;51452;47.698;19.050;2023-04-03T09:56:01;1.00;;;0.70;;
64936;SDS011;51452;47.698;19.050;2023-04-03T09:58:31;0.80;;;0.52;;
64936;SDS011;51452;47.698;19.050;2023-04-03T10:01:09;1.05;;;0.60;;
64936;SDS011;51452;47.698;19.050;2023-04-03T10:03:47;0.90;;;0.70;;
64936;SDS011;51452;47.698;19.050;2023-04-03T10:06:38;2.03;;;1.00;;
64936;SDS011;51452;47.698;19.050;2023-04-03T10:09:16;1.27;;;0.70;;
64936;SDS011;51452;47.698;19.050;2023-04-03T10:14:29;1.73;;;0.88;;
64936;SDS011;51452;47.698;19.050;2023-04-03T10:19:46;1.07;;;0.60;;
64936;SDS011;51452;47.698;19.050;2023-04-03T10:22:20;0.80;;;0.60;;
64936;SDS011;51452;47.698;19.050;2023-04-03T10:25:01;1.13;;;0.77;;
64936;SDS011;51452;47.698;19.050;2023-04-03T10:27:42;0.68;;;0.60;;
64936;SDS011;51452;47.698;19.050;2023-04-03T10:35:25;1.50;;;0.88;;
64936;SDS011;51452;47.698;19.050;2023-04-03T10:43:48;1.17;;;0.80;;
64936;SDS011;51452;47.698;19.050;2023-04-03T10:56:44;0.93;;;0.70;;
64936;SDS011;51452;47.698;19.050;2023-04-03T11:01:48;1.60;;;0.70;;
64936;SDS011;51452;47.698;19.050;2023-04-03T11:04:19;1.60;;;1.00;;
64936;SDS011;51452;47.698;19.050;2023-04-03T11:06:47;2.35;;;1.08;;
64936;SDS011;51452;47.698;19.050;2023-04-03T11:09:28;1.80;;;0.93;;
64936;SDS011;51452;47.698;19.050;2023-04-03T11:14:53;1.08;;;0.75;;
64936;SDS011;51452;47.698;19.050;2023-04-03T11:17:26;4.55;;;0.80;;
64936;SDS011;51452;47.698;19.050;2023-04-03T11:22:39;1.73;;;0.75;;
64936;SDS011;51452;47.698;19.050;2023-04-03T11:27:42;1.63;;;0.80;;
64936;SDS011;51452;47.698;19.050;2023-04-03T11:35:45;1.65;;;0.80;;
64936;SDS011;51452;47.698;19.050;2023-04-03T11:38:17;1.33;;;1.00;;
64936;SDS011;51452;47.698;19.050;2023-04-03T11:41:06;1.17;;;0.70;;
64936;SDS011;51452;47.698;19.050;2023-04-03T11:43:33;0.90;;;0.70;;
64936;SDS011;51452;47.698;19.050;2023-04-03T11:46:05;2.03;;;0.70;;
64936;SDS011;51452;47.698;19.050;2023-04-03T11:51:00;1.33;;;0.80;;
64936;SDS011;51452;47.698;19.050;2023-04-03T11:53:39;1.48;;;0.85;;
64936;SDS011;51452;47.698;19.050;2023-04-03T12:04:20;1.30;;;0.70;;
64936;SDS011;51452;47.698;19.050;2023-04-03T12:09:29;1.23;;;0.80;;
64936;SDS011;51452;47.698;19.050;2023-04-03T12:12:34;1.58;;;1.00;;
64936;SDS011;51452;47.698;19.050;2023-04-03T12:15:16;1.20;;;0.88;;
64936;SDS011;51452;47.698;19.050;2023-04-03T12:17:45;0.80;;;0.60;;
64936;SDS011;51452;47.698;19.050;2023-04-03T12:23:35;1.23;;;0.70;;
64936;SDS011;51452;47.698;19.050;2023-04-03T12:26:41;1.17;;;0.80;;
64936;SDS011;51452;47.698;19.050;2023-04-03T12:38:12;1.20;;;0.80;;
64936;SDS011;51452;47.698;19.050;2023-04-03T12:45:51;1.13;;;0.88;;
64936;SDS011;51452;47.698;19.050;2023-04-03T12:48:26;1.20;;;0.90;;
64936;SDS011;51452;47.698;19.050;2023-04-03T12:50:52;1.85;;;0.80;;
64936;SDS011;51452;47.698;19.050;2023-04-03T12:53:21;2.05;;;0.70;;
64936;SDS011;51452;47.698;19.050;2023-04-03T12:55:53;1.08;;;0.80;;
64936;SDS011;51452;47.698;19.050;2023-04-03T12:58:24;0.90;;;0.75;;
64936;SDS011;51452;47.698;19.050;2023-04-03T13:01:02;2.35;;;0.80;;
64936;SDS011;51452;47.698;19.050;2023-04-03T13:03:29;1.13;;;0.70;;
64936;SDS011;51452;47.698;19.050;2023-04-03T13:05:59;1.20;;;0.80;;
64936;SDS011;51452;47.698;19.050;2023-04-03T13:08:27;1.73;;;0.90;;
64936;SDS011;51452;47.698;19.050;2023-04-03T13:11:04;1.95;;;0.80;;
64936;SDS011;51452;47.698;19.050;2023-04-03T13:13:35;2.60;;;0.80;;
64936;SDS011;51452;47.698;19.050;2023-04-03T13:16:07;1.23;;;0.80;;
64936;SDS011;51452;47.698;19.050;2023-04-03T13:18:35;0.93;;;0.68;;
64936;SDS011;51452;47.698;19.050;2023-04-03T13:21:03;1.13;;;0.80;;
64936;SDS011;51452;47.698;19.050;2023-04-03T13:23:30;1.08;;;0.80;;
64936;SDS011;51452;47.698;19.050;2023-04-03T13:25:58;1.98;;;0.95;;
64936;SDS011;51452;47.698;19.050;2023-04-03T13:28:28;1.35;;;0.88;;
64936;SDS011;51452;47.698;19.050;2023-04-03T13:30:56;1.10;;;0.70;;
64936;SDS011;51452;47.698;19.050;2023-04-03T13:33:27;2.03;;;0.90;;
64936;SDS011;51452;47.698;19.050;2023-04-03T13:36:00;1.25;;;0.98;;
64936;SDS011;51452;47.698;19.050;2023-04-03T13:38:32;1.52;;;0.90;;
64936;SDS011;51452;47.698;19.050;2023-04-03T13:41:00;1.27;;;0.65;;
64936;SDS011;51452;47.698;19.050;2023-04-03T13:43:33;1.45;;;0.80;;
64936;SDS011;51452;47.698;19.050;2023-04-03T13:48:56;1.40;;;0.90;;
64936;SDS011;51452;47.698;19.050;2023-04-03T13:51:27;1.08;;;0.73;;
64936;SDS011;51452;47.698;19.050;2023-04-03T13:58:56;2.28;;;1.30;;
64936;SDS011;51452;47.698;19.050;2023-04-03T14:01:57;1.13;;;0.75;;
64936;SDS011;51452;47.698;19.050;2023-04-03T14:07:05;2.17;;;1.10;;
64936;SDS011;51452;47.698;19.050;2023-04-03T14:09:30;2.67;;;1.00;;
64936;SDS011;51452;47.698;19.050;2023-04-03T14:12:00;1.30;;;0.90;;
64936;SDS011;51452;47.698;19.050;2023-04-03T14:14:34;3.15;;;1.00;;
64936;SDS011;51452;47.698;19.050;2023-04-03T14:17:02;3.28;;;1.30;;
64936;SDS011;51452;47.698;19.050;2023-04-03T14:19:35;2.78;;;1.10;;
64936;SDS011;51452;47.698;19.050;2023-04-03T14:22:05;1.35;;;1.00;;
64936;SDS011;51452;47.698;19.050;2023-04-03T14:24:42;2.15;;;1.20;;
64936;SDS011;51452;47.698;19.050;2023-04-03T14:27:17;1.65;;;0.90;;
64936;SDS011;51452;47.698;19.050;2023-04-03T14:29:48;2.70;;;1.27;;
64936;SDS011;51452;47.698;19.050;2023-04-03T14:32:15;1.80;;;1.10;;
64936;SDS011;51452;47.698;19.050;2023-04-03T14:34:42;2.42;;;1.08;;
64936;SDS011;51452;47.698;19.050;2023-04-03T14:37:15;1.50;;;0.95;;
64936;SDS011;51452;47.698;19.050;2023-04-03T14:39:44;1.70;;;1.00;;
64936;SDS011;51452;47.698;19.050;2023-04-03T14:42:15;1.10;;;0.90;;
64936;SDS011;51452;47.698;19.050;2023-04-03T14:44:43;1.60;;;0.90;;
64936;SDS011;51452;47.698;19.050;2023-04-03T14:47:10;1.90;;;1.00;;
64936;SDS011;51452;47.698;19.050;2023-04-03T14:49:41;1.75;;;1.00;;
64936;SDS011;51452;47.698;19.050;2023-04-03T14:52:11;1.73;;;1.13;;
64936;SDS011;51452;47.698;19.050;2023-04-03T14:54:43;1.90;;;1.30;;
64936;SDS011;51452;47.698;19.050;2023-04-03T14:57:08;1.38;;;0.90;;
64936;SDS011;51452;47.698;19.050;2023-04-03T14:59:36;1.70;;;1.02;;
64936;SDS011;51452;47.698;19.050;2023-04-03T15:02:02;1.77;;;1.10;;
64936;SDS011;51452;47.698;19.050;2023-04-03T15:04:27;1.93;;;1.33;;
64936;SDS011;51452;47.698;19.050;2023-04-03T15:06:53;2.10;;;1.25;;
64936;SDS011;51452;47.698;19.050;2023-04-03T15:09:25;2.88;;;1.42;;
64936;SDS011;51452;47.698;19.050;2023-04-03T15:11:52;2.38;;;1.40;;
64936;SDS011;51452;47.698;19.050;2023-04-03T15:14:18;2.75;;;1.45;;
64936;SDS011;51452;47.698;19.050;2023-04-03T15:16:44;3.33;;;1.63;;
64936;SDS011;51452;47.698;19.050;2023-04-03T15:19:10;3.08;;;1.77;;
64936;SDS011;51452;47.698;19.050;2023-04-03T15:21:36;2.58;;;1.48;;
64936;SDS011;51452;47.698;19.050;2023-04-03T15:24:02;3.03;;;1.63;;
64936;SDS011;51452;47.698;19.050;2023-04-03T15:26:27;5.38;;;2.70;;
64936;SDS011;51452;47.698;19.050;2023-04-03T15:28:53;4.18;;;2.65;;
64936;SDS011;51452;47.698;19.050;2023-04-03T15:31:18;3.40;;;1.77;;
64936;SDS011;51452;47.698;19.050;2023-04-03T15:33:44;2.70;;;1.53;;
64936;SDS011;51452;47.698;19.050;2023-04-03T15:36:09;2.75;;;1.55;;
64936;SDS011;51452;47.698;19.050;2023-04-03T15:38:35;2.97;;;1.20;;
64936;SDS011;51452;47.698;19.050;2023-04-03T15:41:03;3.50;;;1.70;;
64936;SDS011;51452;47.698;19.050;2023-04-03T15:43:28;3.03;;;1.83;;
64936;SDS011;51452;47.698;19.050;2023-04-03T15:45:56;1.83;;;1.00;;
64936;SDS011;51452;47.698;19.050;2023-04-03T15:48:23;1.83;;;1.13;;
64936;SDS011;51452;47.698;19.050;2023-04-03T15:50:48;1.70;;;1.00;;
64936;SDS011;51452;47.698;19.050;2023-04-03T15:53:13;1.77;;;1.00;;
64936;SDS011;51452;47.698;19.050;2023-04-03T15:55:39;1.93;;;1.10;;
64936;SDS011;51452;47.698;19.050;2023-04-03T15:58:04;2.83;;;1.20;;
64936;SDS011;51452;47.698;19.050;2023-04-03T16:00:30;2.10;;;1.33;;
64936;SDS011;51452;47.698;19.050;2023-04-03T16:03:02;2.60;;;1.50;;
64936;SDS011;51452;47.698;19.050;2023-04-03T16:05:30;2.33;;;1.40;;
64936;SDS011;51452;47.698;19.050;2023-04-03T16:07:57;3.50;;;1.50;;
64936;SDS011;51452;47.698;19.050;2023-04-03T16:10:24;3.43;;;1.63;;
64936;SDS011;51452;47.698;19.050;2023-04-03T16:12:50;3.97;;;1.53;;
64936;SDS011;51452;47.698;19.050;2023-04-03T16:15:16;3.47;;;1.50;;
64936;SDS011;51452;47.698;19.050;2023-04-03T16:17:41;6.17;;;1.80;;
64936;SDS011;51452;47.698;19.050;2023-04-03T16:20:08;2.87;;;1.70;;
64936;SDS011;51452;47.698;19.050;2023-04-03T16:22:34;4.00;;;1.70;;
64936;SDS011;51452;47.698;19.050;2023-04-03T16:25:01;4.47;;;1.80;;
64936;SDS011;51452;47.698;19.050;2023-04-03T16:27:26;4.60;;;1.47;;